createdAt,value
2023-05-21T00:02:51.650Z,19.14
2023-05-21T00:05:54.605Z,19.13
2023-05-21T00:08:56.739Z,19.13
2023-05-21T00:11:58.923Z,19.12
2023-05-21T00:15:01.672Z,19.11
2023-05-21T00:18:03.960Z,19.12
2023-05-21T00:21:06.727Z,19.12
2023-05-21T00:24:08.828Z,19.11
2023-05-21T00:27:11.225Z,19.10
2023-05-21T00:30:13.348Z,19.10
2023-05-21T00:33:15.719Z,19.09
2023-05-21T00:36:17.854Z,19.10
2023-05-21T00:39:19.907Z,19.10
2023-05-21T00:42:22.010Z,19.09
2023-05-21T00:45:25.502Z,19.09
2023-05-21T00:48:28.050Z,19.08
2023-05-21T00:51:30.866Z,19.09
2023-05-21T00:54:33.038Z,19.07
2023-05-21T00:57:39.247Z,19.06
2023-05-21T01:00:41.736Z,19.07
2023-05-21T01:03:43.908Z,19.07
2023-05-21T01:06:46.278Z,19.07
2023-05-21T01:09:48.753Z,19.06
2023-05-21T01:12:51.846Z,19.03
2023-05-21T01:15:54.420Z,19.05
2023-05-21T01:18:58.019Z,19.05
2023-05-21T01:22:05.463Z,19.03
2023-05-21T01:25:07.890Z,19.03
2023-05-21T01:28:10.010Z,19.01
2023-05-21T01:31:31.275Z,19.02
2023-05-21T01:34:45.716Z,19.01
2023-05-21T01:38:16.436Z,19.01
2023-05-21T01:41:19.818Z,19.01
2023-05-21T01:44:25.333Z,19.00
2023-05-21T01:47:31.329Z,18.99
2023-05-21T01:50:35.242Z,19.00
2023-05-21T01:53:40.586Z,18.98
2023-05-21T01:56:42.691Z,18.97
2023-05-21T01:59:45.554Z,18.97
2023-05-21T02:02:47.897Z,18.97
2023-05-21T02:05:51.927Z,18.98
2023-05-21T02:08:54.078Z,18.97
2023-05-21T02:11:56.569Z,18.97
2023-05-21T02:14:58.734Z,18.95
2023-05-21T02:18:00.896Z,18.96
2023-05-21T02:21:02.992Z,18.95
2023-05-21T02:24:05.444Z,18.94
2023-05-21T02:27:07.509Z,18.93
2023-05-21T02:30:14.240Z,18.93
2023-05-21T02:33:16.983Z,18.92
2023-05-21T02:36:19.214Z,18.93
2023-05-21T02:39:21.345Z,18.94
2023-05-21T02:42:23.829Z,18.92
2023-05-21T02:45:25.939Z,18.91
2023-05-21T02:48:28.068Z,18.91
2023-05-21T02:51:30.566Z,18.89
2023-05-21T02:54:32.685Z,18.89
2023-05-21T02:57:34.757Z,18.88
2023-05-21T03:00:36.856Z,18.88
2023-05-21T03:03:38.978Z,18.87
2023-05-21T03:06:41.248Z,18.86
2023-05-21T03:09:43.330Z,18.85
2023-05-21T03:12:45.623Z,18.87
2023-05-21T03:15:47.819Z,18.87
2023-05-21T03:18:49.972Z,18.84
2023-05-21T03:21:52.701Z,18.84
2023-05-21T03:24:54.768Z,18.84
2023-05-21T03:27:56.904Z,18.83
2023-05-21T03:30:59.431Z,18.84
2023-05-21T03:34:01.614Z,18.85
2023-05-21T03:37:03.745Z,18.83
2023-05-21T03:40:06.666Z,18.82
2023-05-21T03:43:08.799Z,18.81
2023-05-21T03:46:10.950Z,18.80
2023-05-21T03:49:14.590Z,18.82
2023-05-21T03:52:16.720Z,18.80
2023-05-21T03:55:18.828Z,18.79
2023-05-21T03:58:23.933Z,18.79
2023-05-21T04:01:26.028Z,18.79
2023-05-21T04:04:29.491Z,18.78
2023-05-21T04:07:31.638Z,18.79
2023-05-21T04:10:33.998Z,18.77
2023-05-21T04:13:36.259Z,18.77
2023-05-21T04:16:39.521Z,18.78
2023-05-21T04:19:42.003Z,18.77
2023-05-21T04:22:44.371Z,18.78
2023-05-21T04:25:50.550Z,18.76
2023-05-21T04:28:54.059Z,18.77
2023-05-21T04:31:56.426Z,18.77
2023-05-21T04:35:01.046Z,18.76
2023-05-21T04:38:05.706Z,18.73
2023-05-21T04:41:10.686Z,18.72
2023-05-21T04:44:14.965Z,18.72
2023-05-21T04:47:18.530Z,18.74
2023-05-21T04:50:20.622Z,18.73
2023-05-21T04:53:23.838Z,18.74
2023-05-21T04:56:29.539Z,18.73
2023-05-21T04:59:31.956Z,18.73
2023-05-21T05:02:34.077Z,18.73
2023-05-21T05:05:36.446Z,18.74
2023-05-21T05:08:38.821Z,18.74
2023-05-21T05:11:40.959Z,18.76
2023-05-21T05:14:43.100Z,18.74
2023-05-21T05:17:45.253Z,18.78
2023-05-21T05:20:47.728Z,18.82
2023-05-21T05:23:50.156Z,18.84
2023-05-21T05:26:52.296Z,18.84
2023-05-21T05:29:54.558Z,18.86
2023-05-21T05:32:56.969Z,18.86
2023-05-21T05:35:59.091Z,18.87
2023-05-21T05:39:01.198Z,18.87
2023-05-21T05:42:04.717Z,18.91
2023-05-21T05:45:07.252Z,18.89
2023-05-21T05:48:09.384Z,18.89
2023-05-21T05:51:11.984Z,18.93
2023-05-21T05:54:14.093Z,18.95
2023-05-21T05:57:16.437Z,18.99
2023-05-21T06:00:18.639Z,18.98
2023-05-21T06:03:21.151Z,18.97
2023-05-21T06:06:23.480Z,18.96
2023-05-21T06:09:25.735Z,18.96
2023-05-21T06:12:27.820Z,18.99
2023-05-21T06:15:30.074Z,19.00
2023-05-21T06:18:32.143Z,19.02
2023-05-21T06:21:34.242Z,19.06
2023-05-21T06:24:36.331Z,19.08
2023-05-21T06:27:38.725Z,19.14
2023-05-21T06:30:40.848Z,19.18
2023-05-21T06:33:43.379Z,19.16
2023-05-21T06:36:45.840Z,19.15
2023-05-21T06:39:48.194Z,19.21
2023-05-21T06:42:50.351Z,19.28
2023-05-21T06:45:52.472Z,19.37
2023-05-21T06:48:54.596Z,19.48
2023-05-21T06:51:56.681Z,19.56
2023-05-21T06:54:58.800Z,19.60
2023-05-21T06:58:00.957Z,19.62
2023-05-21T07:01:03.162Z,19.63
2023-05-21T07:04:05.823Z,19.67
2023-05-21T07:07:07.916Z,19.67
2023-05-21T07:10:10.365Z,19.66
2023-05-21T07:13:13.016Z,19.70
2023-05-21T07:16:17.745Z,19.71
2023-05-21T07:19:19.962Z,19.71
2023-05-21T07:22:22.069Z,19.73
2023-05-21T07:25:24.344Z,19.73
2023-05-21T07:28:26.440Z,19.74
2023-05-21T07:31:28.629Z,19.74
2023-05-21T07:34:30.777Z,19.76
2023-05-21T07:37:32.904Z,19.72
2023-05-21T07:40:35.091Z,19.70
2023-05-21T07:43:37.470Z,19.71
2023-05-21T07:46:39.628Z,19.70
2023-05-21T07:49:41.809Z,19.68
2023-05-21T07:52:43.940Z,19.66
2023-05-21T07:55:50.461Z,19.66
2023-05-21T07:58:53.865Z,19.65
2023-05-21T08:01:56.558Z,19.65
2023-05-21T08:04:58.984Z,19.67
2023-05-21T08:08:01.199Z,19.67
2023-05-21T08:11:03.272Z,19.71
2023-05-21T08:14:05.476Z,19.75
2023-05-21T08:17:09.391Z,19.80
2023-05-21T08:20:13.446Z,19.83
2023-05-21T08:23:15.735Z,19.88
2023-05-21T08:26:17.867Z,19.90
2023-05-21T08:29:19.983Z,19.92
2023-05-21T08:32:22.166Z,19.99
2023-05-21T08:35:24.476Z,20.00
2023-05-21T08:38:28.702Z,19.99
2023-05-21T08:41:35.665Z,20.03
2023-05-21T08:44:44.286Z,20.03
2023-05-21T08:47:49.298Z,20.11
2023-05-21T08:50:52.990Z,20.11
2023-05-21T08:53:57.101Z,20.13
2023-05-21T08:57:01.700Z,20.16
2023-05-21T09:00:06.394Z,20.20
2023-05-21T09:03:11.296Z,20.22
2023-05-21T09:06:14.162Z,20.22
2023-05-21T09:09:38.498Z,20.21
2023-05-21T09:12:40.970Z,20.27
2023-05-21T09:15:43.793Z,20.29
2023-05-21T09:18:46.057Z,20.30
2023-05-21T09:21:51.038Z,20.29
2023-05-21T09:24:53.790Z,20.35
2023-05-21T09:27:57.080Z,20.35
2023-05-21T09:31:03.894Z,20.49
2023-05-21T09:34:06.089Z,20.65
2023-05-21T09:37:19.972Z,20.62
2023-05-21T09:40:29.065Z,20.60
2023-05-21T09:43:31.741Z,20.62
2023-05-21T09:46:43.328Z,20.65
2023-05-21T09:49:45.424Z,20.63
2023-05-21T09:52:50.357Z,20.61
2023-05-21T09:55:57.580Z,20.56
2023-05-21T09:59:06.739Z,20.50
2023-05-21T10:02:22.521Z,20.46
2023-05-21T10:05:29.744Z,20.49
2023-05-21T10:08:36.680Z,20.50
2023-05-21T10:11:39.911Z,20.48
2023-05-21T10:14:43.913Z,20.53
2023-05-21T10:17:47.373Z,20.57
2023-05-21T10:20:50.235Z,20.60
2023-05-21T10:23:53.443Z,20.61
2023-05-21T10:26:55.776Z,20.62
2023-05-21T10:29:59.115Z,20.64
2023-05-21T10:33:02.881Z,20.62
2023-05-21T10:36:05.849Z,20.64
2023-05-21T10:39:09.593Z,20.63
2023-05-21T10:42:23.894Z,20.63
2023-05-21T10:45:53.250Z,20.64
2023-05-21T10:49:04.218Z,20.94
2023-05-21T10:52:47.888Z,21.21
2023-05-21T10:55:55.992Z,21.35
2023-05-21T10:59:08.965Z,21.37
2023-05-21T11:02:13.584Z,21.40
2023-05-21T11:05:15.773Z,21.59
2023-05-21T11:08:26.398Z,21.47
2023-05-21T11:11:54.304Z,21.50
2023-05-21T11:14:57.588Z,21.39
2023-05-21T11:17:59.803Z,21.35
2023-05-21T11:21:06.312Z,21.22
2023-05-21T11:24:10.731Z,21.19
2023-05-21T11:27:12.832Z,21.21
2023-05-21T11:30:19.328Z,21.19
2023-05-21T11:33:21.546Z,21.15
2023-05-21T11:36:23.658Z,21.18
2023-05-21T11:39:26.266Z,21.20
2023-05-21T11:42:29.117Z,21.22
2023-05-21T11:45:32.801Z,21.25
2023-05-21T11:48:36.571Z,21.31
2023-05-21T11:51:40.144Z,21.36
2023-05-21T11:54:54.102Z,21.31
2023-05-21T11:57:56.462Z,21.29
2023-05-21T12:00:58.608Z,21.34
2023-05-21T12:04:04.618Z,21.30
2023-05-21T12:07:07.625Z,21.35
2023-05-21T12:10:10.307Z,21.36
2023-05-21T12:13:12.459Z,21.33
2023-05-21T12:16:15.569Z,21.30
2023-05-21T12:19:19.144Z,21.30
2023-05-21T12:22:23.484Z,21.31
2023-05-21T12:25:25.715Z,21.30
2023-05-21T12:28:27.995Z,21.32
2023-05-21T12:31:30.856Z,21.35
2023-05-21T12:34:50.387Z,21.34
2023-05-21T12:37:53.048Z,21.33
2023-05-21T12:40:55.305Z,21.35
2023-05-21T12:43:58.066Z,21.39
2023-05-21T12:47:00.669Z,21.40
2023-05-21T12:50:04.367Z,21.44
2023-05-21T12:53:10.152Z,21.46
2023-05-21T12:56:13.855Z,21.50
2023-05-21T12:59:16.010Z,21.51
2023-05-21T13:02:25.761Z,21.55
2023-05-21T13:05:27.883Z,21.61
2023-05-21T13:08:30.036Z,21.66
2023-05-21T13:11:32.132Z,21.68
2023-05-21T13:14:34.256Z,21.72
2023-05-21T13:17:36.367Z,21.74
2023-05-21T13:20:39.020Z,21.70
2023-05-21T13:23:41.316Z,21.72
2023-05-21T13:26:43.397Z,21.73
2023-05-21T13:29:45.525Z,21.73
2023-05-21T13:32:48.560Z,21.73
2023-05-21T13:35:51.811Z,21.75
2023-05-21T13:38:55.666Z,21.76
2023-05-21T13:41:57.969Z,21.78
2023-05-21T13:45:00.184Z,21.82
2023-05-21T13:48:02.292Z,21.85
2023-05-21T13:51:04.464Z,21.83
2023-05-21T13:54:06.609Z,21.84
2023-05-21T13:57:08.766Z,21.84
2023-05-21T14:00:14.116Z,21.92
2023-05-21T14:03:16.650Z,21.94
2023-05-21T14:06:18.754Z,21.92
2023-05-21T14:09:21.436Z,22.03
2023-05-21T14:12:23.599Z,22.08
2023-05-21T14:15:25.835Z,22.14
2023-05-21T14:18:27.990Z,22.10
2023-05-21T14:21:30.061Z,22.10
2023-05-21T14:24:32.141Z,22.10
2023-05-21T14:27:34.435Z,22.09
2023-05-21T14:30:36.570Z,22.08
2023-05-21T14:33:39.303Z,22.07
2023-05-21T14:36:41.421Z,22.08
2023-05-21T14:39:43.752Z,22.12
2023-05-21T14:42:45.905Z,22.16
2023-05-21T14:45:49.167Z,22.19
2023-05-21T14:48:51.280Z,22.20
2023-05-21T14:51:53.426Z,22.24
2023-05-21T14:54:55.524Z,22.25
2023-05-21T14:57:57.625Z,22.26
2023-05-21T15:00:59.961Z,22.25
2023-05-21T15:04:03.478Z,22.31
2023-05-21T15:07:05.636Z,22.31
2023-05-21T15:10:08.473Z,22.29
2023-05-21T15:13:10.615Z,22.29
2023-05-21T15:16:12.688Z,22.27
2023-05-21T15:19:14.847Z,22.25
2023-05-21T15:22:17.013Z,22.20
2023-05-21T15:25:20.071Z,22.18
2023-05-21T15:28:23.031Z,22.16
2023-05-21T15:31:25.813Z,22.12
2023-05-21T15:34:28.060Z,22.08
2023-05-21T15:37:32.224Z,22.05
2023-05-21T15:40:34.501Z,21.98
2023-05-21T15:43:36.659Z,21.93
2023-05-21T15:46:39.243Z,21.91
2023-05-21T15:49:41.410Z,21.90
2023-05-21T15:52:43.547Z,21.85
2023-05-21T15:55:45.837Z,21.83
2023-05-21T15:58:48.018Z,21.80
2023-05-21T16:01:50.117Z,21.79
2023-05-21T16:04:52.342Z,21.78
2023-05-21T16:07:54.519Z,21.75
2023-05-21T16:10:57.508Z,21.70
2023-05-21T16:13:59.613Z,21.68
2023-05-21T16:17:01.788Z,21.69
2023-05-21T16:20:04.088Z,21.67
2023-05-21T16:23:06.482Z,21.67
2023-05-21T16:26:09.472Z,21.61
2023-05-21T16:29:11.643Z,21.61
2023-05-21T16:32:14.166Z,21.62
2023-05-21T16:35:16.422Z,21.60
2023-05-21T16:38:18.627Z,21.55
2023-05-21T16:41:21.696Z,21.58
2023-05-21T16:44:23.772Z,21.58
2023-05-21T16:47:26.466Z,21.58
2023-05-21T16:50:28.670Z,21.57
2023-05-21T16:53:30.856Z,21.54
2023-05-21T16:56:32.981Z,21.54
2023-05-21T16:59:35.054Z,21.53
2023-05-21T17:02:38.149Z,21.42
2023-05-21T17:05:40.358Z,21.40
2023-05-21T17:08:42.726Z,21.37
2023-05-21T17:11:44.838Z,21.38
2023-05-21T17:14:46.978Z,21.34
2023-05-21T17:17:49.082Z,21.39
2023-05-21T17:20:51.212Z,21.36
2023-05-21T17:23:53.557Z,21.34
2023-05-21T17:26:55.686Z,21.33
2023-05-21T17:29:57.869Z,21.29
2023-05-21T17:33:02.149Z,21.28
2023-05-21T17:36:04.554Z,21.27
2023-05-21T17:39:06.642Z,21.25
2023-05-21T17:42:08.740Z,21.24
2023-05-21T17:45:11.208Z,21.30
2023-05-21T17:48:13.383Z,21.34
2023-05-21T17:51:15.824Z,21.31
2023-05-21T17:54:18.749Z,21.32
2023-05-21T17:57:20.870Z,21.33
2023-05-21T18:00:22.972Z,21.28
2023-05-21T18:03:25.083Z,21.24
2023-05-21T18:06:28.802Z,21.24
2023-05-21T18:09:30.904Z,21.23
2023-05-21T18:12:33.039Z,21.21
2023-05-21T18:15:35.412Z,21.18
2023-05-21T18:18:37.730Z,21.17
2023-05-21T18:21:39.816Z,21.18
2023-05-21T18:24:41.892Z,21.16
2023-05-21T18:27:44.173Z,21.14
2023-05-21T18:30:46.263Z,21.14
2023-05-21T18:33:48.392Z,21.16
2023-05-21T18:36:50.635Z,21.15
2023-05-21T18:39:52.900Z,21.13
2023-05-21T18:42:55.186Z,21.10
2023-05-21T18:45:57.565Z,21.09
2023-05-21T18:49:00.740Z,21.10
2023-05-21T18:52:03.144Z,21.09
2023-05-21T18:55:06.561Z,21.10
2023-05-21T18:58:08.637Z,21.09
2023-05-21T19:01:11.028Z,21.09
2023-05-21T19:04:13.152Z,21.07
2023-05-21T19:07:15.885Z,21.09
2023-05-21T19:10:19.662Z,21.11
2023-05-21T19:13:22.407Z,21.10
2023-05-21T19:16:24.519Z,21.07
2023-05-21T19:19:26.699Z,21.06
2023-05-21T19:22:28.910Z,21.06
2023-05-21T19:25:33.959Z,21.05
2023-05-21T19:28:36.164Z,21.04
2023-05-21T19:31:39.202Z,21.05
2023-05-21T19:34:41.969Z,21.02
2023-05-21T19:37:44.181Z,21.03
2023-05-21T19:40:46.226Z,21.02
2023-05-21T19:43:48.497Z,21.01
2023-05-21T19:46:51.554Z,21.01
2023-05-21T19:49:53.678Z,21.00
2023-05-21T19:52:57.211Z,21.00
2023-05-21T19:55:59.734Z,20.99
2023-05-21T19:59:01.791Z,20.98
2023-05-21T20:02:03.951Z,20.98
2023-05-21T20:05:06.959Z,20.95
2023-05-21T20:08:09.133Z,20.95
2023-05-21T20:11:11.385Z,20.95
2023-05-21T20:14:13.623Z,20.94
2023-05-21T20:17:18.805Z,20.98
2023-05-21T20:20:22.972Z,21.00
2023-05-21T20:23:25.153Z,20.99
2023-05-21T20:26:27.339Z,21.01
2023-05-21T20:29:29.598Z,21.01
2023-05-21T20:32:31.743Z,21.00
2023-05-21T20:35:33.837Z,20.98
2023-05-21T20:38:37.975Z,21.00
2023-05-21T20:41:40.280Z,20.99
2023-05-21T20:44:45.081Z,20.96
2023-05-21T20:47:48.142Z,20.95
2023-05-21T20:50:52.711Z,20.94
2023-05-21T20:53:54.860Z,20.92
2023-05-21T20:56:59.792Z,20.90
2023-05-21T21:00:01.870Z,20.91
2023-05-21T21:03:04.678Z,20.88
2023-05-21T21:06:07.553Z,20.88
2023-05-21T21:09:09.723Z,20.87
2023-05-21T21:12:24.642Z,20.85
2023-05-21T21:15:27.984Z,20.85
2023-05-21T21:18:30.087Z,20.84
2023-05-21T21:21:32.213Z,20.83
2023-05-21T21:24:34.346Z,20.83
2023-05-21T21:27:36.424Z,20.81
2023-05-21T21:30:40.784Z,20.83
2023-05-21T21:33:43.113Z,20.83
2023-05-21T21:36:45.272Z,20.79
2023-05-21T21:39:47.370Z,20.78
2023-05-21T21:42:49.516Z,20.77
2023-05-21T21:45:51.740Z,20.77
2023-05-21T21:48:53.885Z,20.77
2023-05-21T21:51:57.892Z,20.77
2023-05-21T21:55:00.011Z,20.76
2023-05-21T21:58:02.386Z,20.74
2023-05-21T22:01:04.556Z,20.74
2023-05-21T22:04:06.710Z,20.74
2023-05-21T22:07:10.697Z,20.72
2023-05-21T22:10:16.962Z,20.72
2023-05-21T22:13:19.056Z,20.72
2023-05-21T22:16:21.203Z,20.71
2023-05-21T22:19:24.138Z,20.72
2023-05-21T22:22:26.438Z,20.70
2023-05-21T22:25:28.473Z,20.69
2023-05-21T22:28:30.704Z,20.69
2023-05-21T22:31:32.811Z,20.69
2023-05-21T22:34:34.960Z,20.68
2023-05-21T22:37:37.442Z,20.68
2023-05-21T22:40:39.821Z,20.66
2023-05-21T22:43:42.629Z,20.66
2023-05-21T22:46:44.837Z,20.65
2023-05-21T22:49:47.754Z,20.64
2023-05-21T22:52:49.860Z,20.63
2023-05-21T22:55:52.153Z,20.65
2023-05-21T22:58:55.280Z,20.62
2023-05-21T23:01:57.646Z,20.62
2023-05-21T23:04:59.761Z,20.62
2023-05-21T23:08:01.932Z,20.60
2023-05-21T23:11:04.039Z,20.61
2023-05-21T23:14:06.111Z,20.61
2023-05-21T23:17:08.261Z,20.60
2023-05-21T23:20:10.701Z,20.60
2023-05-21T23:23:12.782Z,20.59
2023-05-21T23:26:14.864Z,20.59
2023-05-21T23:29:17.448Z,20.57
2023-05-21T23:32:19.588Z,20.57
2023-05-21T23:35:21.684Z,20.56
2023-05-21T23:38:24.114Z,20.56
2023-05-21T23:41:27.526Z,20.55
2023-05-21T23:44:29.647Z,20.56
2023-05-21T23:47:31.726Z,20.53
2023-05-21T23:50:33.941Z,20.53
2023-05-21T23:53:36.120Z,20.54
2023-05-21T23:56:38.179Z,20.53
2023-05-21T23:59:40.529Z,20.53
